Weather at Heliport Palagruža island [CLOSED]

Public forecast

Using degrees Celsius for public forecast. Weather courtesy of forecast.io.

Closest aviation weather report (METAR) to Heliport Palagruža island

Closest report is Amendola Air Base, 56.5 nm (104.7 km) SSW.

2024/05/19 23:55 (retrieved 39 minutes ago)

LIBA 192355Z VRB02KT 0400 FG VV002 17/16 Q1011 RMK VIS MIN 0400 WIND THR11 VRB01KT WIND THR29 /////KT RED

Closest aviation forecast (TAF) to Heliport Palagruža island

Forecast is more than 12 hours old.

Closest forecast is Brač Airport, 56.7 nm (105.1 km) NNE.

2024/05/18 16:03 Ammendment (retrieved 1 day ago)

TAF AMD TAF AMD LDSB 181600Z 1816/1912 CNL